Time;durP1;ratioP1;P1;durP2;ratioP2;P2;SDS_P1;SDS_P2;PMS_P1;PMS_P2;Temp;Humidity;BMP_temperature;BMP_pressure;BME280_temperature;BME280_humidity;BME280_pressure;Samples;Min_cycle;Max_cycle;Signal;HPM_P1;HPM_P2
2022/09/20 00:01:31;;;;;;;2.35;1.90;;;19.30;99.90;;;19.17;67.34;98445.63;5092234;28;20036;-75
2022/09/20 00:03:59;;;;;;;2.50;1.88;;;19.30;99.90;;;19.19;67.35;98450.78;5070212;28;20043;-75
2022/09/20 00:06:29;;;;;;;1.80;1.48;;;19.40;99.90;;;19.18;67.67;98455.44;5107089;27;20040;-75
2022/09/20 00:08:55;;;;;;;2.22;1.80;;;19.40;99.90;;;19.18;67.72;98452.69;5075581;28;20494;-75
2022/09/20 00:11:27;;;;;;;3.03;2.42;;;19.40;99.90;;;19.17;67.66;98453.84;5074844;28;20390;-75
2022/09/20 00:13:55;;;;;;;1.95;1.80;;;19.40;99.90;;;19.17;67.50;98450.31;5087576;28;20073;-75
2022/09/20 00:16:32;;;;;;;3.80;2.25;;;19.30;99.90;;;19.18;67.49;98452.69;5076550;28;20116;-75
2022/09/20 00:18:59;;;;;;;2.53;2.10;;;19.40;99.90;;;19.16;68.06;98451.44;5093203;28;20043;-75
2022/09/20 00:21:28;;;;;;;3.10;1.85;;;19.40;99.90;;;19.16;67.74;98449.50;5109730;28;20047;-74
2022/09/20 00:23:55;;;;;;;2.72;1.80;;;19.40;99.90;;;19.17;67.76;98450.31;5087141;28;20500;-74
2022/09/20 00:26:21;;;;;;;2.33;2.00;;;19.40;99.90;;;19.17;67.99;98450.31;5089307;28;20045;-74
2022/09/20 00:28:47;;;;;;;2.38;2.17;;;19.40;99.90;;;19.15;67.71;98447.88;5088043;28;20467;-74
2022/09/20 00:31:13;;;;;;;2.10;1.92;;;19.40;99.90;;;19.17;67.42;98450.31;5091915;28;20051;-74
2022/09/20 00:36:26;;;;;;;3.38;2.08;;;19.30;99.90;;;19.19;67.76;98448.81;5093093;28;20058;-74
2022/09/20 00:39:00;;;;;;;3.40;1.85;;;19.30;99.90;;;19.19;68.02;98453.53;5093559;28;20041;-74
2022/09/20 00:41:27;;;;;;;2.28;1.98;;;19.40;99.90;;;19.17;68.05;98456.59;5089974;28;20122;-74
2022/09/20 00:43:53;;;;;;;2.08;1.67;;;19.40;99.90;;;19.15;67.71;98458.88;5071222;28;20073;-74
2022/09/20 00:46:35;;;;;;;3.72;1.77;;;19.30;99.90;;;19.15;67.73;98456.13;5093676;28;20053;-74
2022/09/20 00:49:12;;;;;;;2.08;1.75;;;19.30;99.90;;;19.17;67.39;98453.06;5091402;28;20176;-75
2022/09/20 00:51:38;;;;;;;2.17;1.98;;;19.30;99.90;;;19.19;67.53;98459.03;5105603;28;20518;-75
2022/09/20 00:54:04;;;;;;;2.45;1.98;;;19.40;99.90;;;19.15;67.95;98458.88;5075155;28;20035;-74
2022/09/20 00:56:33;;;;;;;1.95;1.85;;;19.40;99.90;;;19.17;67.66;98456.59;5076347;28;20537;-75
2022/09/20 00:59:11;;;;;;;2.03;1.83;;;19.30;99.90;;;19.12;68.09;98454.06;5106163;28;20076;-74
2022/09/20 01:01:37;;;;;;;3.15;2.03;;;19.40;99.90;;;19.15;67.80;98453.38;5110907;28;20131;-75
2022/09/20 01:04:03;;;;;;;3.47;2.65;;;19.30;99.90;;;19.17;67.61;98456.59;5073950;28;20039;-75
2022/09/20 01:06:30;;;;;;;2.35;2.08;;;19.30;99.90;;;19.14;67.76;98448.25;5076119;28;20063;-75
2022/09/20 01:08:57;;;;;;;3.20;2.13;;;19.30;99.90;;;19.16;67.85;98454.19;5072369;28;20046;-75
2022/09/20 01:11:24;;;;;;;1.77;1.55;;;19.30;99.90;;;19.19;67.78;98443.34;5090584;28;20156;-75
2022/09/20 01:13:49;;;;;;;2.78;1.90;;;19.40;99.90;;;19.18;68.08;98451.91;5096323;27;20609;-74
2022/09/20 01:16:16;;;;;;;2.17;1.95;;;19.30;99.90;;;19.16;67.91;98446.75;5080914;27;20039;-75
2022/09/20 01:18:42;;;;;;;2.50;2.30;;;19.30;99.90;;;19.16;67.94;98448.69;5098332;27;20046;-75
2022/09/20 01:21:08;;;;;;;3.80;1.83;;;19.30;99.90;;;19.15;67.71;98447.88;5093505;27;20032;-74
2022/09/20 01:24:10;;;;;;;2.00;1.83;;;19.30;99.90;;;19.17;67.72;98447.56;5100883;27;20032;-75
2022/09/20 01:27:08;;;;;;;2.30;1.98;;;19.30;99.90;;;19.15;68.32;98447.09;5094719;28;20361;-74
2022/09/20 01:30:20;;;;;;;2.88;1.90;;;19.30;99.90;;;19.16;67.99;98449.50;5103267;27;20114;-74
2022/09/20 01:33:10;;;;;;;1.67;1.58;;;19.30;99.90;;;19.14;68.10;98448.25;5038089;28;20467;-74
2022/09/20 01:35:36;;;;;;;1.60;1.48;;;19.30;99.90;;;19.13;68.00;98452.91;5009929;28;20047;-75
2022/09/20 01:38:14;;;;;;;3.40;2.20;;;19.30;99.90;;;19.13;67.96;98452.91;5074645;28;20047;-75
2022/09/20 01:41:13;;;;;;;2.95;2.08;;;19.30;99.90;;;19.13;68.11;98450.16;5111455;27;20040;-74
2022/09/20 01:43:53;;;;;;;3.65;1.58;;;19.30;99.90;;;19.15;68.14;98453.38;5112004;27;20051;-74
2022/09/20 01:46:30;;;;;;;1.77;1.67;;;19.30;99.90;;;19.16;67.99;98455.00;5092050;27;20046;-74
2022/09/20 01:49:36;;;;;;;2.20;1.90;;;19.30;99.90;;;19.16;67.81;98452.25;5114190;27;20044;-75
2022/09/20 01:52:29;;;;;;;2.08;1.70;;;19.40;99.90;;;19.16;67.86;98454.19;5095985;28;20048;-75
2022/09/20 01:55:17;;;;;;;2.55;2.05;;;19.30;99.90;;;19.15;67.92;98453.38;5098239;27;20495;-75
2022/09/20 01:58:14;;;;;;;2.63;2.38;;;19.30;99.90;;;19.14;68.38;98459.25;5098228;28;20039;-75
2022/09/20 02:01:47;;;;;;;1.63;1.52;;;19.30;99.90;;;19.15;67.95;98458.88;5111474;27;20394;-75
2022/09/20 02:05:07;;;;;;;2.25;1.60;;;19.30;99.90;;;19.14;68.08;98457.28;5103190;27;21021;-75
2022/09/20 02:08:08;;;;;;;2.40;2.20;;;19.30;99.90;;;19.15;67.91;98464.38;5112709;27;20036;-74
2022/09/20 02:10:49;;;;;;;2.22;2.05;;;19.30;99.90;;;19.15;67.84;98458.88;5111086;27;20040;-74
2022/09/20 02:13:29;;;;;;;2.75;1.90;;;19.30;99.90;;;19.15;68.14;98460.84;5109478;27;20081;-75
2022/09/20 02:16:26;;;;;;;1.53;1.43;;;19.30;99.90;;;19.14;68.38;98465.53;5112744;27;20923;-74
2022/09/20 02:19:22;;;;;;;2.47;1.92;;;19.30;99.90;;;19.13;68.26;98465.88;5111550;27;21004;-74
2022/09/20 02:22:48;;;;;;;1.45;1.35;;;19.30;99.90;;;19.14;68.07;98473.78;5131903;27;20040;-74
2022/09/20 02:25:48;;;;;;;2.42;2.13;;;19.30;99.90;;;19.13;67.82;98461.16;5111435;27;20530;-74
2022/09/20 02:28:45;;;;;;;2.40;2.15;;;19.30;99.90;;;19.14;67.87;98467.50;5109907;27;20031;-74
2022/09/20 02:31:46;;;;;;;2.45;1.85;;;19.30;99.90;;;19.14;68.26;98467.50;5108121;27;20517;-74
2022/09/20 02:34:41;;;;;;;1.58;1.48;;;19.30;99.90;;;19.13;68.38;98461.16;5117106;27;20530;-74
2022/09/20 02:37:24;;;;;;;2.97;2.38;;;19.30;99.90;;;19.13;67.89;98469.41;5112248;27;20039;-74
2022/09/20 02:40:31;;;;;;;2.20;2.00;;;19.30;99.90;;;19.14;67.92;98475.75;5108408;27;20035;-74
2022/09/20 02:43:17;;;;;;;3.25;1.83;;;19.30;99.90;;;19.12;67.95;98481.56;5114557;27;20036;-74
2022/09/20 02:46:17;;;;;;;1.85;1.67;;;19.30;99.90;;;19.11;68.35;98479.13;5097299;27;20084;-74
2022/09/20 02:49:23;;;;;;;1.83;1.70;;;19.30;99.90;;;19.09;68.34;98479.50;5112730;27;20407;-74
2022/09/20 02:51:57;;;;;;;4.00;2.05;;;19.30;99.90;;;19.12;68.45;98476.06;5111421;27;20043;-74
2022/09/20 02:54:41;;;;;;;1.60;1.42;;;19.30;99.90;;;19.12;67.92;98480.75;5096782;27;20040;-74
2022/09/20 02:58:24;;;;;;;1.88;1.75;;;19.30;99.90;;;19.12;67.91;98475.28;5096344;27;20051;-75
2022/09/20 03:01:23;;;;;;;2.83;2.20;;;19.30;99.90;;;19.13;68.19;98485.09;5076552;27;20093;-74
2022/09/20 03:04:07;;;;;;;2.17;1.70;;;19.30;99.90;;;19.14;68.16;98481.25;5108118;27;20036;-74
2022/09/20 03:07:04;;;;;;;1.75;1.65;;;19.30;99.90;;;19.14;67.99;98484.78;5094320;28;20394;-74
2022/09/20 03:09:49;;;;;;;1.67;1.52;;;19.30;99.90;;;19.15;68.06;98477.34;5111725;27;20522;-75
2022/09/20 03:13:11;;;;;;;1.75;1.48;;;19.30;99.90;;;19.10;68.25;98483.84;5116198;27;20040;-75
2022/09/20 03:16:01;;;;;;;2.55;1.92;;;19.30;99.90;;;19.11;67.98;98479.97;5108268;27;20031;-75
2022/09/20 03:18:59;;;;;;;3.97;2.35;;;19.30;99.90;;;19.12;68.59;98483.50;5114104;27;20040;-75
2022/09/20 03:21:46;;;;;;;2.17;1.85;;;19.30;99.90;;;19.10;68.62;98489.34;5110436;27;20044;-75
2022/09/20 03:24:38;;;;;;;2.15;1.63;;;19.30;99.90;;;19.09;68.24;98494.03;5107184;27;20036;-75
2022/09/20 03:27:14;;;;;;;2.53;2.00;;;19.30;99.90;;;19.10;68.33;98483.84;5112006;28;20385;-74
2022/09/20 03:30:09;;;;;;;2.03;1.90;;;19.30;99.90;;;19.10;68.09;98494.84;5108531;27;20126;-74
2022/09/20 03:32:41;;;;;;;2.47;2.10;;;19.30;99.90;;;19.12;68.06;98491.75;5079137;27;20035;-74
2022/09/20 03:35:19;;;;;;;1.35;1.27;;;19.30;99.90;;;19.11;68.50;98496.47;5110148;27;20672;-76
2022/09/20 03:38:22;;;;;;;1.98;1.77;;;19.30;99.90;;;19.11;68.69;98496.47;5109418;27;20459;-74
2022/09/20 03:41:12;;;;;;;1.60;1.50;;;19.30;99.90;;;19.11;68.41;98501.13;5106967;27;20104;-74
2022/09/20 03:43:56;;;;;;;2.05;1.83;;;19.30;99.90;;;19.12;68.01;98509.06;5111564;27;20044;-74
2022/09/20 03:46:50;;;;;;;1.95;1.77;;;19.30;99.90;;;19.11;68.16;98510.22;5105760;27;20474;-74
2022/09/20 03:49:56;;;;;;;1.98;1.88;;;19.30;99.90;;;19.09;68.66;98516.03;5088735;27;20047;-74
2022/09/20 03:53:08;;;;;;;2.47;1.80;;;19.30;99.90;;;19.11;68.24;98512.13;5105259;27;20040;-74
2022/09/20 03:55:46;;;;;;;2.30;1.70;;;19.30;99.90;;;19.10;67.29;98511.34;5106732;27;20036;-74
2022/09/20 03:58:40;;;;;;;2.35;1.70;;;19.30;99.90;;;19.13;66.82;98515.34;5107227;27;20051;-74
2022/09/20 04:01:31;;;;;;;4.05;2.47;;;19.30;99.90;;;19.12;66.63;98522.81;5104909;27;20027;-74
2022/09/20 04:04:07;;;;;;;3.17;1.58;;;19.30;99.90;;;19.09;67.81;98517.97;5107774;27;20043;-74
2022/09/20 04:07:16;;;;;;;2.22;2.03;;;19.30;99.90;;;19.08;67.99;98521.84;5108862;27;20143;-74
2022/09/20 04:09:54;;;;;;;1.60;1.50;;;19.30;99.90;;;19.06;67.37;98521.41;5103449;27;20051;-74
2022/09/20 04:12:57;;;;;;;2.47;1.77;;;19.20;99.90;;;19.07;66.80;98525.75;5107896;27;20051;-74
2022/09/20 04:15:51;;;;;;;2.53;2.28;;;19.30;99.90;;;19.06;66.66;98527.72;5102025;28;20040;-74
2022/09/20 04:18:43;;;;;;;1.65;1.55;;;19.30;99.90;;;19.07;67.15;98537.56;5107030;28;20469;-74
2022/09/20 04:21:22;;;;;;;1.98;1.48;;;19.30;99.90;;;19.09;67.42;98531.72;5109703;28;20036;-74
2022/09/20 04:24:29;;;;;;;1.75;1.65;;;19.30;99.90;;;19.07;67.42;98537.56;5103253;28;20119;-75
2022/09/20 04:27:08;;;;;;;2.28;2.03;;;19.30;99.90;;;19.02;66.93;98540.50;5104774;28;20035;-77
2022/09/20 04:29:49;;;;;;;1.83;1.73;;;19.30;99.90;;;19.04;66.68;98534.69;5095655;28;20039;-76
2022/09/20 04:32:31;;;;;;;1.95;1.85;;;19.20;99.90;;;19.05;66.45;98541.78;5092114;28;20058;-75
2022/09/20 04:37:49;;;;;;;4.50;2.35;;;19.20;99.90;;;19.07;67.21;98545.00;5090329;28;20504;-75
2022/09/20 04:41:23;;;;;;;1.92;1.77;;;19.20;99.90;;;19.07;67.32;98545.00;5070298;28;20100;-75
2022/09/20 04:44:07;;;;;;;1.40;1.30;;;19.30;99.90;;;19.08;66.41;98541.09;5037178;28;20052;-75
2022/09/20 04:47:15;;;;;;;2.80;2.08;;;19.30;99.90;;;19.04;66.30;98548.44;5047327;28;20045;-75
2022/09/20 04:50:06;;;;;;;2.47;2.00;;;19.20;99.90;;;18.99;66.56;98549.44;5096581;27;20056;-75
2022/09/20 04:52:55;;;;;;;2.35;2.05;;;19.20;99.90;;;19.02;66.84;98546.00;5104113;27;20040;-75
2022/09/20 04:55:54;;;;;;;2.22;1.90;;;19.20;99.90;;;19.05;66.79;98548.06;5086872;28;20143;-76
2022/09/20 04:58:42;;;;;;;2.30;2.03;;;19.30;99.90;;;19.06;66.61;98549.69;5122618;27;20049;-78
2022/09/20 05:01:15;;;;;;;2.63;1.90;;;19.30;99.90;;;19.01;66.39;98551.84;5109761;27;20403;-76
2022/09/20 05:04:18;;;;;;;1.75;1.65;;;19.20;99.90;;;19.00;66.54;98550.22;5104110;28;20065;-77
2022/09/20 05:07:03;;;;;;;3.92;2.33;;;19.20;99.90;;;18.97;66.45;98562.69;5104386;27;20047;-76
2022/09/20 05:10:17;;;;;;;4.75;1.73;;;19.10;99.90;;;19.03;66.66;98555.88;5103931;27;20561;-74
2022/09/20 05:13:29;;;;;;;2.40;1.90;;;19.20;99.90;;;19.08;66.88;98560.34;5100980;27;20055;-74
2022/09/20 05:16:11;;;;;;;1.98;1.80;;;19.20;99.90;;;19.06;66.20;98565.41;5066437;28;20138;-74
2022/09/20 05:19:31;;;;;;;2.03;1.77;;;19.20;99.90;;;19.03;66.10;98566.03;5107761;27;20044;-77
2022/09/20 05:22:28;;;;;;;1.75;1.65;;;19.20;99.90;;;19.04;65.84;98567.66;5102199;27;20050;-74
2022/09/20 05:25:20;;;;;;;5.43;2.10;;;19.20;99.90;;;19.04;66.19;98562.16;5106659;27;20047;-74
2022/09/20 05:28:05;;;;;;;;;;;19.20;99.90;;;19.09;66.15;98567.47;5066486;28;20856;-74
2022/09/20 05:31:18;;;;;;;2.83;2.13;;;19.30;99.90;;;19.02;66.02;98570.75;5088095;28;19949;-74
2022/09/20 05:34:04;;;;;;;2.15;1.95;;;19.20;99.90;;;19.07;65.47;98570.53;5090623;28;20047;-74
2022/09/20 05:37:31;;;;;;;2.28;1.95;;;19.20;99.90;;;19.01;65.73;98569.16;5085725;28;20048;-74
2022/09/20 05:40:05;;;;;;;1.85;1.75;;;19.20;99.90;;;19.03;65.85;98572.38;5083964;27;20494;-74
2022/09/20 05:42:59;;;;;;;4.05;2.58;;;19.20;99.90;;;19.08;66.06;98574.09;5103774;27;20040;-74
2022/09/20 05:45:54;;;;;;;3.95;2.50;;;19.20;99.90;;;19.12;65.72;98575.03;5063400;27;20705;-74
2022/09/20 05:48:26;;;;;;;3.60;2.72;;;19.30;99.90;;;19.06;65.41;98576.38;5060797;27;20059;-74
2022/09/20 05:51:11;;;;;;;5.65;2.38;;;19.20;99.90;;;19.07;65.32;98573.28;5105078;27;20046;-74
2022/09/20 05:54:07;;;;;;;2.17;1.85;;;19.20;99.90;;;19.08;65.41;98582.34;5091136;28;20044;-74
2022/09/20 05:57:04;;;;;;;2.92;2.22;;;19.20;99.90;;;19.08;65.50;98583.16;5104469;27;20045;-74
2022/09/20 05:59:57;;;;;;;3.10;2.67;;;19.20;99.90;;;19.08;65.41;98580.41;5109902;27;20456;-74
2022/09/20 06:02:54;;;;;;;3.47;2.40;;;19.20;99.90;;;19.11;65.34;98578.09;5089881;27;20043;-74
2022/09/20 06:06:03;;;;;;;5.38;3.10;;;19.20;99.90;;;19.11;65.76;98587.19;5075634;27;20130;-74
2022/09/20 06:09:03;;;;;;;5.70;2.88;;;19.20;99.90;;;19.09;65.68;98584.75;5104089;27;20050;-74
2022/09/20 06:12:16;;;;;;;2.85;2.60;;;19.20;99.90;;;19.12;65.62;98588.78;5107603;27;20494;-74
2022/09/20 06:15:01;;;;;;;4.32;2.60;;;19.30;99.90;;;19.06;65.70;98596.44;5102623;27;20123;-74
2022/09/20 06:17:37;;;;;;;5.07;3.20;;;19.20;99.90;;;19.07;66.27;98595.28;5086210;28;20127;-74
2022/09/20 06:20:40;;;;;;;6.50;3.28;;;19.20;99.90;;;19.13;66.00;98604.13;5104146;27;20526;-74
2022/09/20 06:23:07;;;;;;;6.68;3.58;;;19.30;99.90;;;19.18;65.61;98594.88;5089826;28;20048;-74
2022/09/20 06:25:46;;;;;;;4.78;3.20;;;19.30;99.90;;;19.22;65.22;98599.38;5090754;28;20048;-74
2022/09/20 06:28:18;;;;;;;6.40;2.72;;;19.30;99.90;;;19.20;64.90;98601.66;5088670;28;20143;-74
2022/09/20 06:30:49;;;;;;;7.22;2.53;;;19.30;99.90;;;19.17;65.40;98602.31;5088383;27;20031;-74
2022/09/20 06:33:20;;;;;;;4.68;3.10;;;19.30;99.90;;;19.16;65.14;98608.16;5074833;28;20051;-74
2022/09/20 06:42:28;;;;;;;10.40;3.67;;;19.30;99.90;;;19.18;65.54;98620.41;5108445;27;20145;-74
2022/09/20 06:44:54;;;;;;;5.97;3.17;;;19.30;99.90;;;19.22;65.23;98615.06;5107359;27;20044;-74
2022/09/20 06:47:22;;;;;;;6.70;3.30;;;19.30;99.90;;;19.22;65.14;98623.31;5101596;27;20040;-74
2022/09/20 06:49:49;;;;;;;3.95;2.88;;;19.30;99.90;;;19.23;64.83;98625.75;5092539;27;20431;-74
2022/09/20 06:52:19;;;;;;;4.13;3.05;;;19.30;99.90;;;19.25;65.24;98630.91;5103901;27;20046;-74
2022/09/20 06:54:47;;;;;;;6.68;3.47;;;19.40;99.90;;;19.28;65.33;98621.97;5071096;28;20040;-74
2022/09/20 06:57:15;;;;;;;8.60;3.25;;;19.40;99.90;;;19.25;65.32;98623.44;5101845;28;20119;-74
2022/09/20 06:59:42;;;;;;;4.97;3.13;;;19.40;99.90;;;19.26;65.13;98633.31;5085132;27;20079;-74
2022/09/20 07:02:07;;;;;;;6.15;3.40;;;19.40;99.90;;;19.29;64.79;98624.41;5090028;27;20047;-74
2022/09/20 07:04:34;;;;;;;5.00;3.20;;;19.40;99.90;;;19.29;64.71;98627.16;5088861;28;20043;-74
2022/09/20 07:07:04;;;;;;;7.18;3.50;;;19.40;99.90;;;19.30;64.71;98634.25;5086405;28;20112;-74
2022/09/20 07:09:31;;;;;;;8.98;3.53;;;19.40;99.90;;;19.34;64.64;98637.16;5110018;27;20504;-74
2022/09/20 07:11:58;;;;;;;3.90;3.15;;;19.40;99.90;;;19.34;64.56;98637.16;5102309;27;20096;-74
2022/09/20 07:14:27;;;;;;;5.25;3.13;;;19.50;99.90;;;19.34;64.32;98639.09;5091654;28;20039;-74
2022/09/20 07:16:53;;;;;;;5.82;3.22;;;19.50;99.90;;;19.37;64.36;98646.66;5082257;28;20058;-74
2022/09/20 07:19:19;;;;;;;5.50;3.78;;;19.50;99.90;;;19.31;64.51;98643.31;5102878;27;20085;-74
2022/09/20 07:21:45;;;;;;;5.75;3.83;;;19.50;99.90;;;19.36;64.61;98650.53;5106776;27;20147;-74
2022/09/20 07:24:14;;;;;;;4.93;3.70;;;19.50;99.90;;;19.35;64.41;98654.44;5107845;27;20111;-74
2022/09/20 07:26:56;;;;;;;6.57;3.67;;;19.50;99.90;;;19.34;64.92;98658.34;5089436;27;20459;-74
2022/09/20 07:29:22;;;;;;;9.25;3.83;;;19.50;99.90;;;19.34;64.68;98659.16;5102535;27;20388;-74
2022/09/20 07:31:49;;;;;;;5.43;3.53;;;19.50;99.90;;;19.34;64.42;98663.84;5091885;28;20063;-74
2022/09/20 07:34:19;;;;;;;8.90;3.28;;;19.50;99.90;;;19.36;64.29;98670.63;5102795;27;20032;-74
2022/09/20 07:36:46;;;;;;;4.63;3.10;;;19.50;99.90;;;19.46;63.89;98672.16;5085512;28;20406;-74
2022/09/20 07:39:12;;;;;;;10.38;3.53;;;19.50;99.90;;;19.48;63.57;98665.16;5104264;27;20048;-74
2022/09/20 07:41:38;;;;;;;4.50;3.40;;;19.50;99.90;;;19.61;63.21;98665.22;5105601;27;20126;-74
2022/09/20 07:44:20;;;;;;;5.80;3.30;;;19.60;99.90;;;19.56;63.34;98666.25;5086410;28;20457;-74
2022/09/20 07:46:58;;;;;;;5.13;3.05;;;19.60;99.90;;;19.57;63.17;98683.56;5104363;27;20526;-74
2022/09/20 07:49:25;;;;;;;11.05;4.57;;;19.60;99.90;;;19.59;62.96;98679.34;5072220;27;20493;-74
2022/09/20 07:51:51;;;;;;;4.65;3.60;;;19.60;99.90;;;19.62;62.91;98675.91;5099599;27;20474;-74
2022/09/20 07:54:17;;;;;;;6.88;3.45;;;19.60;99.90;;;19.65;62.76;98680.75;5090139;27;20044;-74
2022/09/20 07:56:44;;;;;;;6.60;3.55;;;19.70;99.90;;;19.70;62.45;98677.81;5107876;27;20051;-74
2022/09/20 07:59:12;;;;;;;4.68;3.22;;;19.70;99.90;;;19.69;62.66;98686.38;5102656;27;20079;-74
2022/09/20 08:01:38;;;;;;;5.32;3.22;;;19.70;99.90;;;19.65;62.71;98685.44;5069206;27;20210;-74
2022/09/20 08:04:06;;;;;;;11.63;3.95;;;19.70;99.90;;;19.66;62.55;98687.84;5101508;28;20044;-74
2022/09/20 08:06:35;;;;;;;7.95;3.58;;;19.70;99.90;;;19.63;62.97;98685.75;5084933;27;20078;-74
2022/09/20 08:09:01;;;;;;;5.38;3.30;;;19.70;99.90;;;19.61;62.92;98685.28;5101743;27;20468;-74
2022/09/20 08:11:28;;;;;;;5.57;3.88;;;19.70;99.90;;;19.62;62.67;98691.63;5097741;28;20040;-74
2022/09/20 08:13:55;;;;;;;5.53;4.00;;;19.70;99.90;;;19.62;62.78;98686.91;5101604;27;20432;-74
2022/09/20 08:16:22;;;;;;;6.20;3.65;;;19.80;99.90;;;19.68;63.03;98687.53;5088153;28;20403;-74
2022/09/20 08:18:50;;;;;;;5.50;3.40;;;19.80;99.90;;;19.78;62.02;98691.84;5103965;28;20054;-74
2022/09/20 08:21:16;;;;;;;9.68;3.75;;;19.80;99.90;;;19.89;61.37;98690.28;5071572;28;20176;-74
2022/09/20 08:23:44;;;;;;;5.40;3.63;;;19.80;99.90;;;19.87;61.59;98689.78;5103918;27;20562;-74
2022/09/20 08:26:12;;;;;;;5.75;3.70;;;19.80;99.90;;;19.81;61.79;98697.47;5070360;28;20055;-75
2022/09/20 08:28:39;;;;;;;5.90;3.45;;;19.90;99.90;;;19.82;61.91;98695.50;5105323;28;20039;-74
2022/09/20 08:31:13;;;;;;;6.25;3.53;;;19.90;99.90;;;19.88;61.50;98703.22;5088837;28;20044;-74
2022/09/20 08:33:40;;;;;;;5.00;3.58;;;19.90;99.90;;;19.86;61.34;98694.50;5089524;28;20475;-74
2022/09/20 08:36:08;;;;;;;8.93;3.53;;;19.90;99.90;;;19.82;61.47;98692.75;5073326;28;20495;-74
2022/09/20 08:38:35;;;;;;;7.10;3.78;;;19.90;99.90;;;19.75;61.92;98700.78;5089048;28;20072;-74
2022/09/20 08:41:04;;;;;;;5.35;3.58;;;19.90;99.90;;;19.76;61.69;98699.63;5103881;28;20118;-74
2022/09/20 08:43:38;;;;;;;6.15;3.72;;;19.90;99.90;;;19.75;61.76;98711.78;5093369;28;20047;-74
2022/09/20 08:46:05;;;;;;;2.85;2.42;;;19.90;99.90;;;19.76;62.04;98707.88;5072787;28;20043;-74
2022/09/20 08:48:32;;;;;;;9.85;5.13;;;19.90;99.90;;;19.81;62.07;98711.22;5089036;28;20387;-74
2022/09/20 08:51:02;;;;;;;6.78;3.67;;;19.90;99.90;;;19.81;61.67;98711.22;5098431;28;20401;-74
2022/09/20 08:53:29;;;;;;;6.20;3.63;;;19.90;99.90;;;19.84;61.48;98709.75;5089243;28;20043;-74
2022/09/20 08:55:58;;;;;;;5.70;3.45;;;19.90;99.90;;;19.80;61.60;98715.13;5069693;28;20088;-74
2022/09/20 08:58:25;;;;;;;6.47;3.60;;;19.90;99.90;;;19.80;61.67;98706.88;5102746;27;20052;-74
2022/09/20 09:00:52;;;;;;;5.35;3.25;;;20.00;99.90;;;19.81;61.67;98713.19;5071937;28;20067;-74
2022/09/20 09:03:18;;;;;;;6.72;3.75;;;20.00;99.90;;;19.86;61.87;98716.53;5069897;28;20462;-74
2022/09/20 09:05:54;;;;;;;4.18;2.90;;;20.00;99.90;;;19.90;61.26;98713.91;5102009;28;20047;-74
2022/09/20 09:08:27;;;;;;;7.38;3.25;;;20.00;99.90;;;19.88;61.35;98711.50;5093418;28;20562;-74
2022/09/20 09:11:07;;;;;;;5.85;3.20;;;20.00;99.90;;;19.87;61.27;98709.88;5087075;28;20132;-75
2022/09/20 09:14:01;;;;;;;8.37;4.07;;;20.00;99.90;;;19.95;60.98;98720.00;5087014;28;20552;-75
2022/09/20 09:16:30;;;;;;;4.00;3.20;;;20.10;99.90;;;20.08;60.48;98709.84;5086522;28;20036;-75
2022/09/20 09:18:56;;;;;;;3.75;3.35;;;20.00;99.90;;;20.07;60.43;98707.44;5070098;28;20237;-74
2022/09/20 09:21:27;;;;;;;5.53;2.70;;;20.10;99.90;;;20.12;60.18;98710.81;5103619;28;20063;-75
2022/09/20 09:24:17;;;;;;;3.75;3.03;;;20.10;99.90;;;20.12;60.31;98716.31;5106809;27;20039;-74
2022/09/20 09:26:43;;;;;;;5.30;3.13;;;20.10;99.90;;;20.13;59.91;98711.59;5068606;28;20043;-74
2022/09/20 09:29:20;;;;;;;4.57;2.90;;;20.10;99.90;;;20.19;59.58;98710.22;5105150;28;20459;-74
2022/09/20 09:31:51;;;;;;;5.20;2.95;;;20.20;99.90;;;20.12;59.84;98704.47;5091092;28;20393;-74
2022/09/20 09:34:28;;;;;;;5.47;3.87;;;20.20;99.90;;;20.11;60.18;98708.38;5085621;28;20110;-74
2022/09/20 09:36:54;;;;;;;8.68;3.97;;;20.10;99.90;;;20.12;60.31;98699.78;5056951;27;20043;-74
2022/09/20 09:39:32;;;;;;;5.10;2.90;;;20.10;99.90;;;20.14;59.94;98702.97;5087502;27;20048;-74
2022/09/20 09:41:59;;;;;;;4.70;3.63;;;20.20;99.90;;;20.18;59.91;98714.13;5108151;27;20074;-74
2022/09/20 09:44:32;;;;;;;5.18;3.22;;;20.20;99.90;;;20.14;59.74;98708.47;5089391;28;20048;-74
2022/09/20 09:46:58;;;;;;;7.78;3.38;;;20.10;99.90;;;20.17;59.76;98707.84;5057247;28;20043;-74
2022/09/20 09:49:34;;;;;;;6.00;3.40;;;20.20;99.90;;;20.17;59.84;98707.84;5072126;28;20035;-74
2022/09/20 09:52:14;;;;;;;4.50;2.67;;;20.20;99.90;;;20.17;59.85;98707.00;5087096;28;20047;-74
2022/09/20 09:54:58;;;;;;;6.55;3.20;;;20.20;99.90;;;20.25;59.53;98699.78;5078098;28;20044;-74
2022/09/20 09:57:54;;;;;;;3.22;2.92;;;20.20;99.90;;;20.24;59.66;98692.69;5072391;28;20047;-74
2022/09/20 10:00:22;;;;;;;5.35;2.75;;;20.30;99.90;;;20.33;59.04;98691.47;5105850;27;20483;-74
2022/09/20 10:02:59;;;;;;;5.50;3.25;;;20.30;99.90;;;20.41;58.64;98697.22;5087386;27;20040;-74
2022/09/20 10:05:34;;;;;;;4.25;2.78;;;20.30;99.90;;;20.47;58.73;98684.81;5104359;27;20126;-74
2022/09/20 10:08:30;;;;;;;5.95;2.95;;;20.30;99.90;;;20.27;59.24;98683.75;5104192;27;20043;-74
2022/09/20 10:11:28;;;;;;;3.38;2.72;;;20.30;99.90;;;20.21;59.69;98687.88;5105773;27;20126;-75
2022/09/20 10:14:02;;;;;;;3.10;2.53;;;20.30;99.90;;;20.23;59.47;98691.09;5103032;27;20047;-74
2022/09/20 10:16:46;;;;;;;4.07;2.95;;;20.30;99.90;;;20.09;59.95;98683.91;5094751;28;20457;-74
2022/09/20 10:19:23;;;;;;;6.43;2.85;;;20.30;99.90;;;20.17;59.72;98685.81;5104845;27;20411;-74
2022/09/20 10:22:10;;;;;;;2.80;2.30;;;20.30;99.90;;;20.25;59.54;98692.34;5097334;27;20096;-74
2022/09/20 10:24:58;;;;;;;4.13;3.13;;;20.30;99.90;;;20.29;59.41;98692.47;5096671;27;20068;-74
2022/09/20 10:27:49;;;;;;;5.18;3.45;;;20.30;99.90;;;20.22;59.50;98694.97;5101648;27;20042;-74
2022/09/20 10:30:19;;;;;;;3.72;2.20;;;20.30;99.90;;;20.32;59.21;98689.03;5100491;27;20044;-74
2022/09/20 10:33:18;;;;;;;2.45;2.10;;;20.40;99.90;;;20.38;59.15;98685.72;5105470;27;20135;-74
2022/09/20 10:36:16;;;;;;;3.30;2.78;;;20.40;99.90;;;20.30;59.14;98686.63;5104349;27;20123;-74
2022/09/20 10:39:18;;;;;;;6.10;2.67;;;20.40;99.90;;;20.28;59.61;98686.16;5076017;27;20056;-74
2022/09/20 10:45:46;;;;;;;3.97;3.03;;;20.40;99.90;;;20.35;59.30;98688.34;5106146;27;20372;-74
2022/09/20 10:48:54;;;;;;;6.10;3.30;;;20.40;99.90;;;20.38;59.31;98687.69;5095977;27;20101;-74
2022/09/20 10:51:24;;;;;;;6.03;3.05;;;20.50;99.90;;;20.38;59.04;98688.47;5060327;27;20091;-74
2022/09/20 10:53:53;;;;;;;4.40;2.55;;;20.50;99.90;;;20.41;58.98;98695.25;5108051;27;20412;-74
2022/09/20 10:56:45;;;;;;;4.05;2.78;;;20.50;99.90;;;20.52;58.67;98690.09;5105214;27;20087;-74
2022/09/20 10:59:33;;;;;;;3.88;2.85;;;20.50;99.90;;;20.55;58.63;98695.75;5077853;28;20078;-74
2022/09/20 11:02:48;;;;;;;3.92;2.92;;;20.50;99.90;;;20.49;58.59;98699.06;5103700;27;20481;-74
2022/09/20 11:05:25;;;;;;;3.17;2.58;;;20.60;99.90;;;20.59;58.44;98695.88;5050797;27;20049;-74
2022/09/20 11:08:10;;;;;;;3.60;2.63;;;20.60;99.90;;;20.65;58.13;98686.25;5089695;27;20353;-74
2022/09/20 11:10:49;;;;;;;3.47;2.38;;;20.60;99.90;;;20.51;58.30;98692.06;5090714;28;20148;-74
2022/09/20 11:13:36;;;;;;;5.50;3.53;;;20.60;99.90;;;20.51;58.72;98689.31;5056125;27;20473;-74
2022/09/20 11:16:15;;;;;;;3.85;2.58;;;20.50;99.90;;;20.56;58.51;98697.38;5100449;27;20115;-74
2022/09/20 11:18:53;;;;;;;2.80;2.17;;;20.50;99.90;;;20.51;58.42;98694.03;5090043;28;20051;-74
2022/09/20 11:21:50;;;;;;;6.68;2.38;;;20.60;99.90;;;20.47;58.87;98693.09;5103251;27;20681;-74
2022/09/20 11:24:48;;;;;;;2.35;2.15;;;20.60;99.90;;;20.45;58.64;98685.16;5087315;28;20067;-74
2022/09/20 11:27:29;;;;;;;5.05;2.95;;;20.60;99.90;;;20.44;58.99;98691.00;5104505;27;20479;-74
2022/09/20 11:30:11;;;;;;;3.30;2.58;;;20.60;99.90;;;20.46;58.86;98689.53;5077829;27;20039;-74
2022/09/20 11:32:47;;;;;;;3.35;2.58;;;20.60;99.90;;;20.49;58.73;98686.09;5076409;28;20046;-74
2022/09/20 11:35:24;;;;;;;4.35;2.90;;;20.60;99.90;;;20.51;58.66;98689.31;5102916;27;20110;-74
2022/09/20 11:38:41;;;;;;;2.45;2.25;;;20.70;99.90;;;20.47;59.10;98684.81;5100798;27;20551;-74